Airfield :
LOGIN :

Register | Disclaimer

   EN    FR    IT 

 










Legend :    VFR   Marginal VFR   IFR   Intensive IFR   Very Intensive IFR
Visi :
Ceiling :
>= 8 km
>= 3000ft
5 to 8 km
1000 to 3000 ft
1500m to 5 km
500 to 1000 ft
800 to 1500m
200 to 500 ft
< 800m
< 200 ft
Symbols :   Thunderstorms  Fog  Heavy snow  Heavy precipitations  Wind > 20 kt
SIGMETs :     Misc.  Thunderstorms  Icing  Turbulence  Mountain Waves  Volcanic Ashes







- Airport Elevation : 75 ft
- IATA code : YEO


EGDY - RNAS Yeovilton

CURRENT METAR :
  • 260850Z 26013KT 9999 VCSH FEW025 SCT040 11/07 Q1018 BLU NOSIG

EXPIRED METARs :
  • 260750Z 24007KT 9999 FEW014 SCT045 10/07 Q1018 BLU NOSIG
  • 260650Z 24008KT 9999 FEW014 SCT035 09/06 Q1017 BLU NOSIG

TAF TAF EGDY
Valid from the 26 at 09:00 until the 26 at 18:00 UTC


260731Z 2609/2618 26010KT 9999 SCT030
TEMPO 2609/2618 26015G25KT 7000 -SHRA FEW010 SCT028
No reported NOTAMs for that airfield.



MET'MAP, your aeronautical weather chart ! - Copyright ORBIFLY December 2007 - Disclaimer

ORBIFLY MET'MAP TEAM :

Programming & Development : Alexandra Zaïnal
Concept & Development : Baudouin d'Aumeries
Co-Development & Prog : Marc-Olivier Méhu
Technical & hardware support : Manuel Goepfert

Contact : metmap@orbifly.com




SOURCES & CREDITS :

   NOAA